sensor_id;sensor_type;location;lat;lon;timestamp;P1;durP1;ratioP1;P2;durP2;ratioP2
79204;SDS011;68632;47.512;19.104;2023-06-14T00:00:51;7.43;;;5.05;;
79204;SDS011;68632;47.512;19.104;2023-06-14T00:01:54;7.93;;;5.70;;
79204;SDS011;68632;47.512;19.104;2023-06-14T00:02:57;8.93;;;5.70;;
79204;SDS011;68632;47.512;19.104;2023-06-14T00:04:00;7.65;;;5.25;;
79204;SDS011;68632;47.512;19.104;2023-06-14T00:05:03;7.85;;;5.45;;
79204;SDS011;68632;47.512;19.104;2023-06-14T00:06:06;10.93;;;6.30;;
79204;SDS011;68632;47.512;19.104;2023-06-14T00:07:08;10.05;;;5.72;;
79204;SDS011;68632;47.512;19.104;2023-06-14T00:08:13;10.30;;;6.18;;
79204;SDS011;68632;47.512;19.104;2023-06-14T00:09:16;10.30;;;5.35;;
79204;SDS011;68632;47.512;19.104;2023-06-14T00:10:21;9.45;;;5.82;;
79204;SDS011;68632;47.512;19.104;2023-06-14T00:11:23;11.45;;;5.75;;
79204;SDS011;68632;47.512;19.104;2023-06-14T00:12:25;9.60;;;5.68;;
79204;SDS011;68632;47.512;19.104;2023-06-14T00:13:28;8.38;;;6.40;;
79204;SDS011;68632;47.512;19.104;2023-06-14T00:14:30;10.77;;;6.28;;
79204;SDS011;68632;47.512;19.104;2023-06-14T00:15:32;9.98;;;6.63;;
79204;SDS011;68632;47.512;19.104;2023-06-14T00:16:35;13.05;;;6.88;;
79204;SDS011;68632;47.512;19.104;2023-06-14T00:17:38;9.57;;;6.00;;
79204;SDS011;68632;47.512;19.104;2023-06-14T00:18:41;9.63;;;6.35;;
79204;SDS011;68632;47.512;19.104;2023-06-14T00:19:43;11.55;;;6.15;;
79204;SDS011;68632;47.512;19.104;2023-06-14T00:20:46;9.57;;;6.22;;
79204;SDS011;68632;47.512;19.104;2023-06-14T00:21:48;10.45;;;7.28;;
79204;SDS011;68632;47.512;19.104;2023-06-14T00:22:50;10.57;;;6.93;;
79204;SDS011;68632;47.512;19.104;2023-06-14T00:23:53;9.55;;;6.55;;
79204;SDS011;68632;47.512;19.104;2023-06-14T00:24:56;11.32;;;7.13;;
79204;SDS011;68632;47.512;19.104;2023-06-14T00:25:58;11.27;;;6.68;;
79204;SDS011;68632;47.512;19.104;2023-06-14T00:27:00;10.70;;;6.40;;
79204;SDS011;68632;47.512;19.104;2023-06-14T00:28:03;11.32;;;6.95;;
79204;SDS011;68632;47.512;19.104;2023-06-14T00:29:05;9.75;;;6.57;;
79204;SDS011;68632;47.512;19.104;2023-06-14T00:30:08;10.20;;;6.50;;
79204;SDS011;68632;47.512;19.104;2023-06-14T00:31:10;10.43;;;6.32;;
79204;SDS011;68632;47.512;19.104;2023-06-14T00:32:12;9.20;;;6.18;;
79204;SDS011;68632;47.512;19.104;2023-06-14T00:33:15;11.77;;;6.57;;
79204;SDS011;68632;47.512;19.104;2023-06-14T00:34:17;15.35;;;7.85;;
79204;SDS011;68632;47.512;19.104;2023-06-14T00:35:19;13.18;;;6.70;;
79204;SDS011;68632;47.512;19.104;2023-06-14T00:36:22;12.55;;;7.47;;
79204;SDS011;68632;47.512;19.104;2023-06-14T00:37:24;12.60;;;7.18;;
79204;SDS011;68632;47.512;19.104;2023-06-14T00:38:26;11.48;;;7.57;;
79204;SDS011;68632;47.512;19.104;2023-06-14T00:39:28;9.85;;;6.35;;
79204;SDS011;68632;47.512;19.104;2023-06-14T00:40:30;11.63;;;7.18;;
79204;SDS011;68632;47.512;19.104;2023-06-14T00:41:33;12.38;;;6.80;;
79204;SDS011;68632;47.512;19.104;2023-06-14T00:42:35;9.75;;;7.13;;
79204;SDS011;68632;47.512;19.104;2023-06-14T00:43:37;10.73;;;6.95;;
79204;SDS011;68632;47.512;19.104;2023-06-14T00:44:39;12.50;;;7.07;;
79204;SDS011;68632;47.512;19.104;2023-06-14T00:45:41;10.48;;;7.00;;
79204;SDS011;68632;47.512;19.104;2023-06-14T00:46:46;11.90;;;7.00;;
79204;SDS011;68632;47.512;19.104;2023-06-14T00:47:49;13.23;;;7.38;;
79204;SDS011;68632;47.512;19.104;2023-06-14T00:48:54;10.52;;;6.78;;
79204;SDS011;68632;47.512;19.104;2023-06-14T00:49:58;12.43;;;7.57;;
79204;SDS011;68632;47.512;19.104;2023-06-14T00:51:00;10.95;;;7.75;;
79204;SDS011;68632;47.512;19.104;2023-06-14T00:52:06;13.25;;;7.47;;
79204;SDS011;68632;47.512;19.104;2023-06-14T00:53:08;12.23;;;7.85;;
79204;SDS011;68632;47.512;19.104;2023-06-14T00:54:10;12.13;;;8.00;;
79204;SDS011;68632;47.512;19.104;2023-06-14T00:55:13;11.18;;;7.05;;
79204;SDS011;68632;47.512;19.104;2023-06-14T00:56:15;11.70;;;7.30;;
79204;SDS011;68632;47.512;19.104;2023-06-14T00:57:17;13.13;;;7.05;;
79204;SDS011;68632;47.512;19.104;2023-06-14T00:58:21;13.88;;;8.18;;
79204;SDS011;68632;47.512;19.104;2023-06-14T00:59:23;12.18;;;7.95;;
79204;SDS011;68632;47.512;19.104;2023-06-14T01:00:26;12.13;;;6.95;;
79204;SDS011;68632;47.512;19.104;2023-06-14T01:01:30;12.52;;;8.32;;
79204;SDS011;68632;47.512;19.104;2023-06-14T01:02:36;12.05;;;8.02;;
79204;SDS011;68632;47.512;19.104;2023-06-14T01:03:39;13.13;;;8.90;;
79204;SDS011;68632;47.512;19.104;2023-06-14T01:04:43;12.75;;;8.20;;
79204;SDS011;68632;47.512;19.104;2023-06-14T01:05:51;12.48;;;8.23;;
79204;SDS011;68632;47.512;19.104;2023-06-14T01:07:12;13.35;;;8.93;;
79204;SDS011;68632;47.512;19.104;2023-06-14T01:08:36;14.13;;;8.45;;
79204;SDS011;68632;47.512;19.104;2023-06-14T01:09:51;13.55;;;8.23;;
79204;SDS011;68632;47.512;19.104;2023-06-14T01:11:02;14.50;;;8.57;;
79204;SDS011;68632;47.512;19.104;2023-06-14T01:12:11;15.63;;;8.68;;
79204;SDS011;68632;47.512;19.104;2023-06-14T01:13:21;19.02;;;9.48;;
79204;SDS011;68632;47.512;19.104;2023-06-14T01:14:26;13.20;;;8.30;;
79204;SDS011;68632;47.512;19.104;2023-06-14T01:15:30;12.57;;;8.35;;
79204;SDS011;68632;47.512;19.104;2023-06-14T01:16:33;14.80;;;8.93;;
79204;SDS011;68632;47.512;19.104;2023-06-14T01:17:38;13.90;;;8.80;;
79204;SDS011;68632;47.512;19.104;2023-06-14T01:18:43;12.50;;;8.82;;
79204;SDS011;68632;47.512;19.104;2023-06-14T01:19:50;14.55;;;9.23;;
79204;SDS011;68632;47.512;19.104;2023-06-14T01:20:59;13.35;;;8.48;;
79204;SDS011;68632;47.512;19.104;2023-06-14T01:22:01;15.05;;;9.43;;
79204;SDS011;68632;47.512;19.104;2023-06-14T01:23:04;15.05;;;8.93;;
79204;SDS011;68632;47.512;19.104;2023-06-14T01:24:06;13.85;;;9.32;;
79204;SDS011;68632;47.512;19.104;2023-06-14T01:25:09;15.65;;;9.50;;
79204;SDS011;68632;47.512;19.104;2023-06-14T01:26:11;14.93;;;8.38;;
79204;SDS011;68632;47.512;19.104;2023-06-14T01:27:14;13.57;;;8.40;;
79204;SDS011;68632;47.512;19.104;2023-06-14T01:28:18;16.70;;;9.07;;
79204;SDS011;68632;47.512;19.104;2023-06-14T01:29:22;14.05;;;8.75;;
79204;SDS011;68632;47.512;19.104;2023-06-14T01:30:26;14.73;;;8.77;;
79204;SDS011;68632;47.512;19.104;2023-06-14T01:31:29;14.90;;;9.68;;
79204;SDS011;68632;47.512;19.104;2023-06-14T01:32:41;14.23;;;9.48;;
79204;SDS011;68632;47.512;19.104;2023-06-14T01:33:44;16.02;;;9.20;;
79204;SDS011;68632;47.512;19.104;2023-06-14T01:34:46;14.20;;;8.75;;
79204;SDS011;68632;47.512;19.104;2023-06-14T01:35:50;15.07;;;9.48;;
79204;SDS011;68632;47.512;19.104;2023-06-14T01:36:53;13.40;;;9.68;;
79204;SDS011;68632;47.512;19.104;2023-06-14T01:37:56;16.95;;;9.23;;
79204;SDS011;68632;47.512;19.104;2023-06-14T01:38:59;16.88;;;9.88;;
79204;SDS011;68632;47.512;19.104;2023-06-14T01:40:02;15.45;;;8.88;;
79204;SDS011;68632;47.512;19.104;2023-06-14T01:42:08;13.07;;;8.57;;
79204;SDS011;68632;47.512;19.104;2023-06-14T01:43:13;16.67;;;9.40;;
79204;SDS011;68632;47.512;19.104;2023-06-14T01:44:17;15.90;;;9.15;;
79204;SDS011;68632;47.512;19.104;2023-06-14T01:45:20;16.80;;;9.77;;
79204;SDS011;68632;47.512;19.104;2023-06-14T01:46:23;16.42;;;10.48;;
79204;SDS011;68632;47.512;19.104;2023-06-14T01:47:26;15.18;;;8.90;;
79204;SDS011;68632;47.512;19.104;2023-06-14T01:48:28;13.88;;;9.85;;
79204;SDS011;68632;47.512;19.104;2023-06-14T01:49:33;15.25;;;9.82;;
79204;SDS011;68632;47.512;19.104;2023-06-14T01:50:36;15.65;;;10.50;;
79204;SDS011;68632;47.512;19.104;2023-06-14T01:51:38;16.88;;;10.55;;
79204;SDS011;68632;47.512;19.104;2023-06-14T01:52:41;16.08;;;9.60;;
79204;SDS011;68632;47.512;19.104;2023-06-14T01:53:43;15.50;;;11.00;;
79204;SDS011;68632;47.512;19.104;2023-06-14T01:54:45;14.98;;;9.77;;
79204;SDS011;68632;47.512;19.104;2023-06-14T01:55:49;15.57;;;9.68;;
79204;SDS011;68632;47.512;19.104;2023-06-14T01:56:51;16.58;;;10.18;;
79204;SDS011;68632;47.512;19.104;2023-06-14T01:57:53;15.90;;;10.40;;
79204;SDS011;68632;47.512;19.104;2023-06-14T01:58:57;16.23;;;10.05;;
79204;SDS011;68632;47.512;19.104;2023-06-14T01:59:59;16.30;;;9.55;;
79204;SDS011;68632;47.512;19.104;2023-06-14T02:01:01;15.38;;;9.20;;
79204;SDS011;68632;47.512;19.104;2023-06-14T02:02:04;15.43;;;9.80;;
79204;SDS011;68632;47.512;19.104;2023-06-14T02:03:06;14.77;;;8.77;;
79204;SDS011;68632;47.512;19.104;2023-06-14T02:04:09;17.17;;;9.15;;
79204;SDS011;68632;47.512;19.104;2023-06-14T02:05:11;14.65;;;9.13;;
79204;SDS011;68632;47.512;19.104;2023-06-14T02:06:13;15.25;;;9.45;;
79204;SDS011;68632;47.512;19.104;2023-06-14T02:07:17;15.15;;;9.45;;
79204;SDS011;68632;47.512;19.104;2023-06-14T02:08:20;15.07;;;9.70;;
79204;SDS011;68632;47.512;19.104;2023-06-14T02:09:22;14.18;;;8.55;;
79204;SDS011;68632;47.512;19.104;2023-06-14T02:10:25;17.05;;;10.05;;
79204;SDS011;68632;47.512;19.104;2023-06-14T02:11:27;14.40;;;9.20;;
79204;SDS011;68632;47.512;19.104;2023-06-14T02:12:30;15.20;;;9.18;;
79204;SDS011;68632;47.512;19.104;2023-06-14T02:13:32;16.17;;;9.15;;
79204;SDS011;68632;47.512;19.104;2023-06-14T02:14:34;14.00;;;9.82;;
79204;SDS011;68632;47.512;19.104;2023-06-14T02:15:36;14.20;;;8.80;;
79204;SDS011;68632;47.512;19.104;2023-06-14T02:16:39;14.30;;;8.98;;
79204;SDS011;68632;47.512;19.104;2023-06-14T02:17:41;15.02;;;9.73;;
79204;SDS011;68632;47.512;19.104;2023-06-14T02:18:43;15.40;;;9.00;;
79204;SDS011;68632;47.512;19.104;2023-06-14T02:19:45;16.38;;;8.73;;
79204;SDS011;68632;47.512;19.104;2023-06-14T02:20:47;13.48;;;9.25;;
79204;SDS011;68632;47.512;19.104;2023-06-14T02:21:50;18.80;;;8.95;;
79204;SDS011;68632;47.512;19.104;2023-06-14T02:22:52;14.43;;;9.93;;
79204;SDS011;68632;47.512;19.104;2023-06-14T02:23:54;15.27;;;8.82;;
79204;SDS011;68632;47.512;19.104;2023-06-14T02:24:56;14.13;;;8.75;;
79204;SDS011;68632;47.512;19.104;2023-06-14T02:26:03;14.13;;;8.45;;
79204;SDS011;68632;47.512;19.104;2023-06-14T02:27:06;15.20;;;9.70;;
79204;SDS011;68632;47.512;19.104;2023-06-14T02:28:10;14.02;;;8.38;;
79204;SDS011;68632;47.512;19.104;2023-06-14T02:29:12;15.13;;;9.27;;
79204;SDS011;68632;47.512;19.104;2023-06-14T02:30:16;13.05;;;9.07;;
79204;SDS011;68632;47.512;19.104;2023-06-14T02:31:19;14.50;;;9.13;;
79204;SDS011;68632;47.512;19.104;2023-06-14T02:32:21;15.95;;;9.20;;
79204;SDS011;68632;47.512;19.104;2023-06-14T02:33:23;18.35;;;9.20;;
79204;SDS011;68632;47.512;19.104;2023-06-14T02:34:27;14.70;;;9.73;;
79204;SDS011;68632;47.512;19.104;2023-06-14T02:35:29;18.42;;;9.20;;
79204;SDS011;68632;47.512;19.104;2023-06-14T02:36:32;16.15;;;10.13;;
79204;SDS011;68632;47.512;19.104;2023-06-14T02:37:34;18.08;;;9.93;;
79204;SDS011;68632;47.512;19.104;2023-06-14T02:38:36;16.73;;;9.90;;
79204;SDS011;68632;47.512;19.104;2023-06-14T02:39:39;20.17;;;9.90;;
79204;SDS011;68632;47.512;19.104;2023-06-14T02:40:41;13.95;;;9.02;;
79204;SDS011;68632;47.512;19.104;2023-06-14T02:41:44;14.85;;;9.23;;
79204;SDS011;68632;47.512;19.104;2023-06-14T02:42:46;16.83;;;9.27;;
79204;SDS011;68632;47.512;19.104;2023-06-14T02:43:48;14.25;;;9.02;;
79204;SDS011;68632;47.512;19.104;2023-06-14T02:44:51;13.88;;;8.63;;
79204;SDS011;68632;47.512;19.104;2023-06-14T02:45:53;17.30;;;8.95;;
79204;SDS011;68632;47.512;19.104;2023-06-14T02:46:55;12.75;;;8.38;;
79204;SDS011;68632;47.512;19.104;2023-06-14T02:47:58;12.23;;;8.23;;
79204;SDS011;68632;47.512;19.104;2023-06-14T02:49:00;16.08;;;8.85;;
79204;SDS011;68632;47.512;19.104;2023-06-14T02:50:02;15.43;;;8.73;;
79204;SDS011;68632;47.512;19.104;2023-06-14T02:51:05;15.57;;;8.40;;
79204;SDS011;68632;47.512;19.104;2023-06-14T02:52:07;16.02;;;8.85;;
79204;SDS011;68632;47.512;19.104;2023-06-14T02:53:10;14.80;;;9.05;;
79204;SDS011;68632;47.512;19.104;2023-06-14T02:54:13;12.85;;;8.13;;
79204;SDS011;68632;47.512;19.104;2023-06-14T02:55:16;15.27;;;8.55;;
79204;SDS011;68632;47.512;19.104;2023-06-14T02:56:18;14.13;;;8.43;;
79204;SDS011;68632;47.512;19.104;2023-06-14T02:57:21;13.13;;;8.18;;
79204;SDS011;68632;47.512;19.104;2023-06-14T02:58:24;12.60;;;8.55;;
79204;SDS011;68632;47.512;19.104;2023-06-14T02:59:26;13.40;;;8.02;;
79204;SDS011;68632;47.512;19.104;2023-06-14T03:00:29;16.50;;;9.50;;
79204;SDS011;68632;47.512;19.104;2023-06-14T03:01:32;14.00;;;9.07;;
79204;SDS011;68632;47.512;19.104;2023-06-14T03:02:43;15.10;;;8.60;;
79204;SDS011;68632;47.512;19.104;2023-06-14T03:03:45;13.65;;;8.10;;
79204;SDS011;68632;47.512;19.104;2023-06-14T03:04:48;11.68;;;7.40;;
79204;SDS011;68632;47.512;19.104;2023-06-14T03:05:50;12.90;;;8.05;;
79204;SDS011;68632;47.512;19.104;2023-06-14T03:06:53;13.82;;;8.70;;
79204;SDS011;68632;47.512;19.104;2023-06-14T03:07:55;15.90;;;8.82;;
79204;SDS011;68632;47.512;19.104;2023-06-14T03:08:57;13.30;;;8.43;;
79204;SDS011;68632;47.512;19.104;2023-06-14T03:10:01;15.05;;;8.73;;
79204;SDS011;68632;47.512;19.104;2023-06-14T03:11:05;12.10;;;8.13;;
79204;SDS011;68632;47.512;19.104;2023-06-14T03:12:07;13.50;;;8.32;;
79204;SDS011;68632;47.512;19.104;2023-06-14T03:13:11;14.20;;;8.15;;
79204;SDS011;68632;47.512;19.104;2023-06-14T03:14:13;14.80;;;8.10;;
79204;SDS011;68632;47.512;19.104;2023-06-14T03:15:16;13.27;;;8.50;;
79204;SDS011;68632;47.512;19.104;2023-06-14T03:16:19;16.08;;;8.20;;
79204;SDS011;68632;47.512;19.104;2023-06-14T03:17:23;17.92;;;9.25;;
79204;SDS011;68632;47.512;19.104;2023-06-14T03:18:26;14.77;;;9.07;;
79204;SDS011;68632;47.512;19.104;2023-06-14T03:19:29;12.82;;;8.73;;
79204;SDS011;68632;47.512;19.104;2023-06-14T03:20:31;13.23;;;9.00;;
79204;SDS011;68632;47.512;19.104;2023-06-14T03:21:34;14.30;;;9.02;;
79204;SDS011;68632;47.512;19.104;2023-06-14T03:22:37;14.65;;;9.23;;
79204;SDS011;68632;47.512;19.104;2023-06-14T03:23:39;18.08;;;9.05;;
79204;SDS011;68632;47.512;19.104;2023-06-14T03:24:41;12.65;;;8.48;;
79204;SDS011;68632;47.512;19.104;2023-06-14T03:25:44;14.07;;;8.32;;
79204;SDS011;68632;47.512;19.104;2023-06-14T03:26:47;15.25;;;10.20;;
79204;SDS011;68632;47.512;19.104;2023-06-14T03:27:49;16.55;;;9.15;;
79204;SDS011;68632;47.512;19.104;2023-06-14T03:28:51;16.73;;;9.65;;
79204;SDS011;68632;47.512;19.104;2023-06-14T03:29:53;14.20;;;9.43;;
79204;SDS011;68632;47.512;19.104;2023-06-14T03:30:55;14.65;;;8.85;;
79204;SDS011;68632;47.512;19.104;2023-06-14T03:31:58;18.02;;;9.98;;
79204;SDS011;68632;47.512;19.104;2023-06-14T03:33:02;15.25;;;8.85;;
79204;SDS011;68632;47.512;19.104;2023-06-14T03:34:04;16.08;;;9.80;;
79204;SDS011;68632;47.512;19.104;2023-06-14T03:35:07;15.80;;;9.50;;
79204;SDS011;68632;47.512;19.104;2023-06-14T03:36:09;15.10;;;9.30;;
79204;SDS011;68632;47.512;19.104;2023-06-14T03:37:11;13.35;;;8.95;;
79204;SDS011;68632;47.512;19.104;2023-06-14T03:38:14;15.18;;;8.82;;
79204;SDS011;68632;47.512;19.104;2023-06-14T03:39:16;15.40;;;9.23;;
79204;SDS011;68632;47.512;19.104;2023-06-14T03:40:19;15.02;;;9.50;;
79204;SDS011;68632;47.512;19.104;2023-06-14T03:41:23;14.77;;;9.35;;
79204;SDS011;68632;47.512;19.104;2023-06-14T03:42:25;15.45;;;9.45;;
79204;SDS011;68632;47.512;19.104;2023-06-14T03:43:27;12.52;;;8.38;;
79204;SDS011;68632;47.512;19.104;2023-06-14T03:44:30;18.98;;;9.90;;
79204;SDS011;68632;47.512;19.104;2023-06-14T03:45:32;14.65;;;8.88;;
79204;SDS011;68632;47.512;19.104;2023-06-14T03:46:34;14.82;;;8.75;;
79204;SDS011;68632;47.512;19.104;2023-06-14T03:47:36;16.15;;;9.40;;
79204;SDS011;68632;47.512;19.104;2023-06-14T03:48:38;15.38;;;9.88;;
79204;SDS011;68632;47.512;19.104;2023-06-14T03:49:41;14.45;;;8.60;;
79204;SDS011;68632;47.512;19.104;2023-06-14T03:50:43;14.02;;;8.57;;
79204;SDS011;68632;47.512;19.104;2023-06-14T03:51:46;14.70;;;8.90;;
79204;SDS011;68632;47.512;19.104;2023-06-14T03:52:53;16.05;;;9.95;;
79204;SDS011;68632;47.512;19.104;2023-06-14T03:53:55;14.13;;;9.70;;
79204;SDS011;68632;47.512;19.104;2023-06-14T03:55:17;15.70;;;9.23;;
79204;SDS011;68632;47.512;19.104;2023-06-14T03:56:23;12.25;;;8.73;;
79204;SDS011;68632;47.512;19.104;2023-06-14T03:57:25;15.25;;;9.75;;
79204;SDS011;68632;47.512;19.104;2023-06-14T03:58:27;18.25;;;9.45;;
79204;SDS011;68632;47.512;19.104;2023-06-14T03:59:29;15.57;;;10.32;;
79204;SDS011;68632;47.512;19.104;2023-06-14T04:00:32;14.23;;;9.48;;
79204;SDS011;68632;47.512;19.104;2023-06-14T04:01:34;15.32;;;9.30;;
79204;SDS011;68632;47.512;19.104;2023-06-14T04:02:36;14.35;;;9.43;;
79204;SDS011;68632;47.512;19.104;2023-06-14T04:03:39;17.05;;;9.70;;
79204;SDS011;68632;47.512;19.104;2023-06-14T04:04:42;17.60;;;10.70;;
79204;SDS011;68632;47.512;19.104;2023-06-14T04:05:47;15.70;;;10.27;;
79204;SDS011;68632;47.512;19.104;2023-06-14T04:06:51;16.95;;;9.30;;
79204;SDS011;68632;47.512;19.104;2023-06-14T04:07:53;13.95;;;8.98;;
79204;SDS011;68632;47.512;19.104;2023-06-14T04:08:58;16.85;;;9.50;;
79204;SDS011;68632;47.512;19.104;2023-06-14T04:10:06;15.07;;;9.30;;
79204;SDS011;68632;47.512;19.104;2023-06-14T04:11:09;16.30;;;10.20;;
79204;SDS011;68632;47.512;19.104;2023-06-14T04:12:12;17.05;;;10.05;;
79204;SDS011;68632;47.512;19.104;2023-06-14T04:13:14;14.93;;;8.80;;
79204;SDS011;68632;47.512;19.104;2023-06-14T04:14:17;16.98;;;9.90;;
79204;SDS011;68632;47.512;19.104;2023-06-14T04:15:20;14.63;;;9.10;;
79204;SDS011;68632;47.512;19.104;2023-06-14T04:16:23;17.40;;;10.23;;
79204;SDS011;68632;47.512;19.104;2023-06-14T04:17:25;15.30;;;10.10;;
79204;SDS011;68632;47.512;19.104;2023-06-14T04:18:28;14.95;;;9.63;;
79204;SDS011;68632;47.512;19.104;2023-06-14T04:19:30;18.77;;;10.00;;
79204;SDS011;68632;47.512;19.104;2023-06-14T04:20:32;15.88;;;9.57;;
79204;SDS011;68632;47.512;19.104;2023-06-14T04:21:35;14.30;;;9.43;;
79204;SDS011;68632;47.512;19.104;2023-06-14T04:22:38;14.13;;;9.27;;
79204;SDS011;68632;47.512;19.104;2023-06-14T04:23:40;18.75;;;10.90;;
79204;SDS011;68632;47.512;19.104;2023-06-14T04:24:45;17.15;;;9.68;;
79204;SDS011;68632;47.512;19.104;2023-06-14T04:25:55;16.52;;;9.50;;
79204;SDS011;68632;47.512;19.104;2023-06-14T04:27:03;17.92;;;10.00;;
79204;SDS011;68632;47.512;19.104;2023-06-14T04:28:06;16.52;;;9.63;;
79204;SDS011;68632;47.512;19.104;2023-06-14T04:29:11;14.73;;;10.00;;
79204;SDS011;68632;47.512;19.104;2023-06-14T04:30:18;15.73;;;9.90;;
79204;SDS011;68632;47.512;19.104;2023-06-14T04:31:20;16.40;;;9.73;;
79204;SDS011;68632;47.512;19.104;2023-06-14T04:32:26;19.98;;;10.10;;
79204;SDS011;68632;47.512;19.104;2023-06-14T04:33:29;15.70;;;9.57;;
79204;SDS011;68632;47.512;19.104;2023-06-14T04:34:31;15.13;;;9.77;;
79204;SDS011;68632;47.512;19.104;2023-06-14T04:35:36;14.93;;;9.48;;
79204;SDS011;68632;47.512;19.104;2023-06-14T04:36:39;14.15;;;9.02;;
79204;SDS011;68632;47.512;19.104;2023-06-14T04:37:43;14.63;;;8.85;;
79204;SDS011;68632;47.512;19.104;2023-06-14T04:38:47;17.42;;;10.10;;
79204;SDS011;68632;47.512;19.104;2023-06-14T04:39:51;16.60;;;9.63;;
79204;SDS011;68632;47.512;19.104;2023-06-14T04:40:54;15.90;;;9.57;;
79204;SDS011;68632;47.512;19.104;2023-06-14T04:41:58;13.32;;;8.50;;
79204;SDS011;68632;47.512;19.104;2023-06-14T04:43:02;15.40;;;9.40;;
79204;SDS011;68632;47.512;19.104;2023-06-14T04:44:08;13.23;;;8.90;;
79204;SDS011;68632;47.512;19.104;2023-06-14T04:45:11;14.93;;;8.55;;
79204;SDS011;68632;47.512;19.104;2023-06-14T04:46:15;19.90;;;9.85;;
79204;SDS011;68632;47.512;19.104;2023-06-14T04:47:19;15.13;;;9.68;;
79204;SDS011;68632;47.512;19.104;2023-06-14T04:48:23;14.10;;;9.45;;
79204;SDS011;68632;47.512;19.104;2023-06-14T04:49:26;15.13;;;9.48;;
79204;SDS011;68632;47.512;19.104;2023-06-14T04:50:29;14.82;;;9.75;;
79204;SDS011;68632;47.512;19.104;2023-06-14T04:51:31;14.88;;;9.15;;
79204;SDS011;68632;47.512;19.104;2023-06-14T04:52:35;15.00;;;9.25;;
79204;SDS011;68632;47.512;19.104;2023-06-14T04:53:37;17.00;;;10.02;;
79204;SDS011;68632;47.512;19.104;2023-06-14T04:54:39;14.07;;;9.07;;
79204;SDS011;68632;47.512;19.104;2023-06-14T04:55:45;13.38;;;8.85;;
79204;SDS011;68632;47.512;19.104;2023-06-14T04:56:48;14.65;;;8.60;;
79204;SDS011;68632;47.512;19.104;2023-06-14T04:57:50;17.23;;;9.45;;
79204;SDS011;68632;47.512;19.104;2023-06-14T04:58:54;16.23;;;10.27;;
79204;SDS011;68632;47.512;19.104;2023-06-14T04:59:58;18.08;;;11.40;;
79204;SDS011;68632;47.512;19.104;2023-06-14T05:01:02;15.35;;;10.27;;
79204;SDS011;68632;47.512;19.104;2023-06-14T05:02:05;15.18;;;8.88;;
79204;SDS011;68632;47.512;19.104;2023-06-14T05:03:09;13.35;;;9.20;;
79204;SDS011;68632;47.512;19.104;2023-06-14T05:04:15;14.60;;;8.88;;
79204;SDS011;68632;47.512;19.104;2023-06-14T05:05:18;12.98;;;8.35;;
79204;SDS011;68632;47.512;19.104;2023-06-14T05:06:21;15.38;;;9.05;;
79204;SDS011;68632;47.512;19.104;2023-06-14T05:07:24;15.32;;;9.77;;
79204;SDS011;68632;47.512;19.104;2023-06-14T05:08:26;15.98;;;8.35;;
79204;SDS011;68632;47.512;19.104;2023-06-14T05:09:28;13.30;;;8.68;;
79204;SDS011;68632;47.512;19.104;2023-06-14T05:10:30;13.70;;;9.07;;
79204;SDS011;68632;47.512;19.104;2023-06-14T05:11:33;14.23;;;8.95;;
79204;SDS011;68632;47.512;19.104;2023-06-14T05:12:35;14.88;;;9.27;;
79204;SDS011;68632;47.512;19.104;2023-06-14T05:13:37;14.52;;;9.70;;
79204;SDS011;68632;47.512;19.104;2023-06-14T05:14:39;15.63;;;8.98;;
79204;SDS011;68632;47.512;19.104;2023-06-14T05:15:41;19.85;;;9.98;;
79204;SDS011;68632;47.512;19.104;2023-06-14T05:16:44;14.18;;;8.57;;
79204;SDS011;68632;47.512;19.104;2023-06-14T05:17:46;15.98;;;9.32;;
79204;SDS011;68632;47.512;19.104;2023-06-14T05:18:56;17.88;;;9.55;;
79204;SDS011;68632;47.512;19.104;2023-06-14T05:19:59;16.55;;;9.43;;
79204;SDS011;68632;47.512;19.104;2023-06-14T05:21:01;14.48;;;8.30;;
79204;SDS011;68632;47.512;19.104;2023-06-14T05:22:04;27.80;;;10.63;;
79204;SDS011;68632;47.512;19.104;2023-06-14T05:23:06;14.95;;;9.95;;
79204;SDS011;68632;47.512;19.104;2023-06-14T05:24:08;14.35;;;8.88;;
79204;SDS011;68632;47.512;19.104;2023-06-14T05:25:11;14.73;;;9.60;;
79204;SDS011;68632;47.512;19.104;2023-06-14T05:26:13;15.18;;;9.73;;
79204;SDS011;68632;47.512;19.104;2023-06-14T05:27:16;17.33;;;8.50;;
79204;SDS011;68632;47.512;19.104;2023-06-14T05:28:19;15.77;;;9.38;;
79204;SDS011;68632;47.512;19.104;2023-06-14T05:29:22;15.50;;;8.95;;
79204;SDS011;68632;47.512;19.104;2023-06-14T05:30:24;14.85;;;8.75;;
79204;SDS011;68632;47.512;19.104;2023-06-14T05:31:27;15.20;;;9.52;;
79204;SDS011;68632;47.512;19.104;2023-06-14T05:32:29;14.38;;;8.77;;
79204;SDS011;68632;47.512;19.104;2023-06-14T05:33:33;14.30;;;8.20;;
79204;SDS011;68632;47.512;19.104;2023-06-14T05:34:35;14.13;;;8.85;;
79204;SDS011;68632;47.512;19.104;2023-06-14T05:35:37;13.15;;;8.60;;
79204;SDS011;68632;47.512;19.104;2023-06-14T05:36:40;14.13;;;9.20;;
79204;SDS011;68632;47.512;19.104;2023-06-14T05:37:42;13.77;;;8.63;;
79204;SDS011;68632;47.512;19.104;2023-06-14T05:38:44;17.38;;;9.43;;
79204;SDS011;68632;47.512;19.104;2023-06-14T05:39:47;13.30;;;8.77;;
79204;SDS011;68632;47.512;19.104;2023-06-14T05:40:49;16.15;;;9.10;;
79204;SDS011;68632;47.512;19.104;2023-06-14T05:41:51;15.05;;;8.65;;
79204;SDS011;68632;47.512;19.104;2023-06-14T05:42:54;14.10;;;8.65;;
79204;SDS011;68632;47.512;19.104;2023-06-14T05:43:56;15.77;;;8.50;;
79204;SDS011;68632;47.512;19.104;2023-06-14T05:44:59;13.38;;;8.43;;
79204;SDS011;68632;47.512;19.104;2023-06-14T05:46:01;16.77;;;8.07;;
79204;SDS011;68632;47.512;19.104;2023-06-14T05:47:04;15.38;;;9.15;;
79204;SDS011;68632;47.512;19.104;2023-06-14T05:48:06;12.73;;;9.30;;
79204;SDS011;68632;47.512;19.104;2023-06-14T05:49:08;13.48;;;8.45;;
79204;SDS011;68632;47.512;19.104;2023-06-14T05:50:11;12.98;;;8.30;;
79204;SDS011;68632;47.512;19.104;2023-06-14T05:51:13;20.48;;;8.75;;
79204;SDS011;68632;47.512;19.104;2023-06-14T05:52:15;12.90;;;7.95;;
79204;SDS011;68632;47.512;19.104;2023-06-14T05:53:17;14.05;;;8.50;;
79204;SDS011;68632;47.512;19.104;2023-06-14T05:54:20;15.50;;;9.18;;
79204;SDS011;68632;47.512;19.104;2023-06-14T05:55:22;13.45;;;8.60;;
79204;SDS011;68632;47.512;19.104;2023-06-14T05:56:24;16.27;;;9.38;;
79204;SDS011;68632;47.512;19.104;2023-06-14T05:57:27;12.82;;;8.40;;
79204;SDS011;68632;47.512;19.104;2023-06-14T05:58:30;12.57;;;8.40;;
79204;SDS011;68632;47.512;19.104;2023-06-14T05:59:32;18.60;;;8.82;;
79204;SDS011;68632;47.512;19.104;2023-06-14T06:00:34;16.58;;;8.60;;
79204;SDS011;68632;47.512;19.104;2023-06-14T06:01:37;13.50;;;8.27;;
79204;SDS011;68632;47.512;19.104;2023-06-14T06:02:42;14.00;;;8.63;;
79204;SDS011;68632;47.512;19.104;2023-06-14T06:03:45;14.88;;;8.18;;
79204;SDS011;68632;47.512;19.104;2023-06-14T06:04:48;12.85;;;7.97;;
79204;SDS011;68632;47.512;19.104;2023-06-14T06:05:50;11.63;;;6.95;;
79204;SDS011;68632;47.512;19.104;2023-06-14T06:06:52;15.20;;;7.63;;
79204;SDS011;68632;47.512;19.104;2023-06-14T06:07:55;12.88;;;8.23;;
79204;SDS011;68632;47.512;19.104;2023-06-14T06:08:57;13.13;;;7.97;;
79204;SDS011;68632;47.512;19.104;2023-06-14T06:10:00;13.88;;;8.30;;
79204;SDS011;68632;47.512;19.104;2023-06-14T06:11:02;14.38;;;8.73;;